View Sortable Currents For Network
ASOSAWOSCoCoRaHSCOOPDCPISUSM
SchoolNetOtherSCANMy FavoritesBy StateRWIS
RWIS SurfaceRWIS TrafficRWIS SoilBy NWS WFO

Other Networks: West Texas MesonetKentucky MesonetIEM Misc StationsVermont Weather Analytics Center
Times shown are for timezone: America/Chicago. The local day summary is based on that timezone.
Sorted by: (Station ID)     Click on a column to sort it.

ADD: ID: Station: Ob Time Temps °F   Wind [knots]
Air (Hi / Lo) DewP Feels RH% Speed Direction Gust @Time
XWVSW_RVR_LK01:45 PM 77(77/37) 13 72 9 10 230 20@ 04:30 AM
XWT1Snyder South01:45 PM 72(73/33) 26 68 18 15 210 19@ 12:55 PM
XWOSWOLFFORTH01:45 PM 74(74/26) 11 69 9 10 210 17@ 11:20 AM
XWE2Welch01:45 PM 75(75/28) 21 70 13 11 240 15@ 12:30 PM
XWE1Weinert 2NNE01:45 PM 73(73/41) 33 69 23 18 210 23@ 10:05 AM
XWA1Wall 1E01:45 PM 75(75/39) 35 71 24 21 210 22@ 01:30 PM
XVP1Vigo Park01:45 PM 78(79/31) 19 74 11 15 220 15@ 01:45 PM
XUM1Umbarger 3NEE01:45 PM 75(75/30) 20 71 12 12 240 12@ 03:20 AM
XTURTurkey 2WSW01:45 PM 81(81/38) 19 79 10 10 210 17@ 01:20 AM
XTISTULIA01:45 PM 76(76/36) 22 72 13 13G19 240 19@ 12:05 AM
XTH1Throckmorton 1SW01:45 PM 73(73/42) 36 70 25 13 210 17@ 01:15 AM
XTAT2 SW Tatum12:45 PM 72(72/29) 12 67 10 15 230 20@ 01:30 PM
XTASTAHOKA01:45 PM 73(73/33) 12 68 10 10 200 15@ 12:15 AM
XTA1Tarzan 2WNW01:45 PM 73(73/28) 21 68 14 15 220 17@ 12:05 PM
XSYSSNYDER01:40 PM 73(73/35) 26 69 17 12G18 210 20@ 01:55 AM
XSW1Sweetwater 11SW01:45 PM 71(71/39) 32 67 23 16 220 20@ 12:30 AM
XSVSSILVERTON01:45 PM 78(78/33) 16 74 10 12 210 15@ 12:05 AM
XST3Stinnett 1NNW01:45 PM 74(74/39) 21 69 14 10 210 17@ 03:35 AM
XST2Stamford 5ESE01:40 PM 74(74/41) 33 71 22 14 210 19@ 01:35 PM
XST1St Lawrence01:45 PM 71(71/31) 31 67 23 12G17 220 18@ 01:30 PM
XSPRSPUR01:45 PM 75(75/33) 14 70 10 12G18 240 19@ 10:00 AM
XSMSSEMINOLE01:45 PM 74(75/31) 14 70 10 14G19 240 22@ 01:00 PM
XSLSSLATON01:45 PM 74(74/35) 15 69 11 11 230 22@ 02:30 AM
XSGVSEAGRAVES01:45 PM 76(76/28) 13 71 9 15G24 240 24@ 01:45 PM
XSE1Seymour 3NW01:45 PM 71(71/42) 34 67 25 13 190 25@ 09:50 AM
XSDSSUNDOWN01:45 PM 74(74/28) 8 69 8 9G15 230 15@ 12:20 PM
XSC1Sterling City01:45 PM 75(75/39) 30 71 19 11 190 17@ 12:35 AM
XSB1Sierra Blanca12:45 PM 67(67/41) 21 61 17 7 220 13@ 01:05 PM
XRRSRNG_SPNGS01:45 PM 78(78/43) 21 74 12 11 220 25@ 04:55 AM
XRLSRALLS01:45 PM 72(72/32) 15 67 11 11 230 13@ 12:05 AM
XREEREESE01:45 PM 73(73/25) 12 68 9 10G15 240 18@ 12:50 PM
XQU1Quitaque01:45 PM 80(80/41) 17 76 9 7 230 26@ 12:05 AM
XPVSPLAINVIEW01:45 PM 74(74/30) 18 69 12 11G16 240 17@ 01:30 PM
XPTSPOST01:45 PM 76(76/39) 12 71 9 11 220 24@ 03:45 AM
XPPSPLAINS01:45 PM 74(75/27) 7 69 7 13G19 240 19@ 01:00 PM
XPMSPAMPA01:45 PM 77(77/28) 20 73 12 7 250 17@ 09:50 AM
XPG1Persimmon Gap01:45 PM 74(74/37) 27 70 17 10 150 12@ 12:45 PM
XPFSGUTHRIE01:45 PM 75(75/41) 18 71 12 14 210 22@ 05:20 AM
XPD3Palo Duro 4E01:45 PM 81(81/23) 22 79 11 8 200 11@ 11:00 AM
XPD2Canyon 16ESE01:45 PM 81(81/31) 20 79 10 5 250 15@ 01:15 PM
XPD1Palo Duro Canyon SP01:45 PM 79(79/42) 21 75 11 8 240 17@ 07:20 AM
XPADPADUCAH01:45 PM 76(76/36) 19 72 12 11 210 19@ 09:50 AM
XPA1Panhandle 1SSW01:45 PM 77(77/28) 22 73 12 11 220 13@ 11:00 AM
XONSOLTON01:45 PM 74(74/32) 16 69 11 11 240 22@ 09:45 AM
XOESODONNELL01:45 PM 73(73/28) 15 67 11 15G22 230 22@ 01:45 PM
XOD14 ENE Odel01:45 PM 69(69/41) 33 65 27 14 190 19@ 03:00 AM
XNOR1 S Northfield01:45 PM 82(82/37) 17 80 9 7 150 20@ 12:50 AM
XNH1New Home01:45 PM 73(73/30) 17 68 12 11 220 13@ 12:45 PM
XMUSMULESHOE01:45 PM 73(73/33) 13 67 10 14G22 270 22@ 11:55 AM
XMNSMORTON01:45 PM 74(74/33) 9 69 8 9 220 16@ 12:00 PM
XMESMEMPHIS01:45 PM 73(73/23) 19 68 13 6 190 8@ 11:50 AM
XME1Mertzon 3NNE01:45 PM 73(73/41) 35 69 25 18 210 24@ 12:45 PM
XMD1Menard 2NW01:45 PM 74(74/40) 41 71 30 15 210 17@ 12:45 PM
XMCSMCLEAN01:45 PM 77(77/35) 16 73 10 10 190 12@ 12:05 AM
XMC4McCamey 1SSW01:45 PM 71(71/33) 35 67 27 6 120 10@ 12:55 PM
XMC1Fort McKavett01:45 PM 73(73/42) 41 69 32 7G14 180 17@ 12:45 PM
XLO1Lomax 1SSE01:45 PM 72(72/36) 26 67 18 12 230 17@ 01:20 PM
XLESLAMESA01:45 PM 73(73/27) 19 68 13 9 230 16@ 11:55 AM
XLE1Leslie 2S01:45 PM 77(77/25) 23 73 14 4 130 8@ 01:15 AM
XLDSLEVELLAND01:45 PM 74(74/28) 10 69 8 8 210 15@ 01:15 PM
XLBWLBB_W_MICRONET01:45 PM 75(75/32) 12 70 9 9G14 230 15@ 01:05 PM
XLA1Fort Lancaster01:45 PM 65(65/42) 39 61 38 8 140 11@ 04:15 AM
XKN1Knox City 3NW01:45 PM 73(73/40) 28 69 19 13 210 19@ 10:30 AM
XJU1Junction 1SSW01:45 PM 73(73/40) 42 70 32 13 200 17@ 01:30 PM
XJTSJAYTON01:45 PM 75(75/37) 21 70 13 11G16 230 21@ 09:35 AM
XHRSHART01:45 PM 74(74/31) 18 69 12 12 230 18@ 01:35 PM
XHO1Hobbs 5NW12:45 PM 71(71/29) 13 66 10 15G20 250 20@ 12:05 PM
XHESHEREFORD01:45 PM 74(74/32) 16 69 11 16G23 250 23@ 01:45 PM
XHA2Happy01:45 PM 76(77/36) 20 72 12 14 250 15@ 02:55 AM
XHA1Haskell 1NW01:45 PM 71(71/39) 27 67 19 18 210 26@ 10:30 AM
XGU1Pine Springs GMNP01:45 PM 60(60/55) 14 52 16 23G30 260 39@ 05:20 AM
XGO1Goodnight01:45 PM 80(80/34) 21 76 11 10 230 19@ 06:30 AM
XGHSGRAHAM01:45 PM 73(73/35) 18 68 13 11G17 220 17@ 03:20 AM
XGGSGAIL01:45 PM 73(73/28) 22 68 15 11G17 200 18@ 01:20 PM
XGDSGOODLETT01:45 PM 74(74/38) 22 70 14 10 170 21@ 02:15 AM
XFVSFLUVANNA01:45 PM 71(71/33) 23 66 16 12G19 210 19@ 12:35 PM
XFLSFLOYDADA01:45 PM 76(76/32) 16 71 10 12 220 16@ 03:55 AM
XFL1Fort Lewis12:45 PM 41(41/29) 18 34 39 9 60 10@ 08:50 AM
XFASFRIONA01:45 PM 73(73/32) 16 68 11 15 250 24@ 01:20 PM
XEN1Endee12:45 PM 72(72/38) 18 67 12 13 230 18@ 01:00 PM
XEA1Earth 9WSW01:45 PM 74(74/32) 16 70 11 13 270 18@ 12:50 PM
XDVSDENVER_CITY01:45 PM 73(73/25) 11 68 9 19 250 24@ 01:05 PM
XDR12 SW Dora12:45 PM 70(70/43) 10 64 10 12G19 240 22@ 10:45 AM
XDO1Dozier 3W01:45 PM 76(76/23) 24 72 14 8 130 8@ 12:15 PM
XDMSDIMMITT01:45 PM 73(73/35) 17 69 11 16G22 250 22@ 01:45 PM
XDC1Dell City 1 N12:45 PM 64(64/22) 24 59 21 4 70 10@ 03:20 AM
XCXSChildress 2NNE01:45 PM 74(75/33) 20 70 13 10 170 21@ 03:00 AM
XCR1Crowell 1E01:45 PM 73(73/41) 32 14 210 19@ 11:00 AM
XCO2Colorado City 5NW01:45 PM 75(75/33) 28 71 17 11G17 210 19@ 01:30 PM
XCO1Coyanosa 2 N01:45 PM 77(78/26) 24 73 14 7 240 10@ 01:35 PM
XCL2Clyde 2WNW01:45 PM 69(69/40) 39 66 33 15 210 24@ 12:15 AM
XCL1Claude 12SW01:45 PM 77(77/45) 18 73 11 8 230 18@ 05:30 AM
XCH1Fort Chadbourne01:45 PM 70(70/34) 37 66 29 11 200 11@ 10:55 AM
XCESCLARENDON01:45 PM 78(78/30) 20 74 11 8 200 12@ 01:30 PM
XCA1Canadian 6E01:45 PM 74(74/30) 21 70 13 2 200 10@ 12:05 AM
XBY1Boys Ranch 1WSW01:45 PM 76(76/28) 20 72 12 12 240 13@ 12:15 PM
XBWSBROWNFLD01:45 PM 75(75/30) 15 71 10 11G17 240 17@ 01:45 PM
XBO1Bootleg 11WNW01:45 PM 70(71/37) 16 65 12 21 240 22@ 01:35 PM
XBI1Big Lake 1WNW01:45 PM 70(70/39) 35 66 27 13 190 21@ 04:50 AM
XASUSan Angelo01:45 PM 74(74/39) 31 70 20 14G20 210 20@ 01:45 PM
XASRASPERMONT01:45 PM 73(73/39) 26 69 17 13 200 21@ 11:00 AM
XARSABERNATHY01:45 PM 74(74/33) 17 69 12 13 240 16@ 12:55 PM
XAOSANTON01:45 PM 73(73/27) 18 68 12 8 250 18@ 12:35 PM
XANSANDREWS01:45 PM 72(72/33) 14 67 11 10 210 15@ 10:30 AM
XAMHAMHERST01:45 PM 73(73/40) 14 68 10 10 250 21@ 10:05 AM
XAM3Amarillo 15NNW01:45 PM 78(79/38) 21 74 12 14 270 14@ 01:45 PM
XAM2Amarillo North01:45 PM 78(78/29) 21 74 11 10 240 13@ 01:35 PM
XAM1Amarillo 7SSE01:45 PM 77(77/30) 18 73 11 11 230 14@ 09:50 AM
XAI1Aiken 3WSW01:45 PM 75(76/26) 20 70 12 11 250 14@ 12:20 PM
XAHSLAKE_ALAN_HENRY01:45 PM 74(74/40) 17 69 11 11 220 24@ 03:35 AM
XAD1Adrian 6WSW01:45 PM 71(71/43) 17 66 13 14 240 21@ 01:05 PM
  Plot (Plot / Plot) Plot Plot Plot Plot Plot